Time;durP1;ratioP1;P1;durP2;ratioP2;P2;SDS_P1;SDS_P2;PMS_P1;PMS_P2;Temp;Humidity;BMP_temperature;BMP_pressure;BME280_temperature;BME280_humidity;BME280_pressure;Samples;Min_cycle;Max_cycle;Signal;HPM_P1;HPM_P2
2023/09/01 00:01:51;;;;;;;5.05;2.90;;;16.80;99.90;;;;;;5086665;28;20115;-35
2023/09/01 00:04:16;;;;;;;4.53;2.90;;;16.80;99.90;;;;;;5086188;28;20024;-37
2023/09/01 00:06:42;;;;;;;3.88;3.28;;;16.70;99.90;;;;;;5086086;28;20702;-35
2023/09/01 00:09:10;;;;;;;4.57;3.10;;;16.70;99.90;;;;;;5085650;28;20027;-36
2023/09/01 00:11:36;;;;;;;3.85;2.92;;;16.70;99.90;;;;;;5086673;28;20046;-36
2023/09/01 00:14:03;;;;;;;5.38;3.47;;;16.70;99.90;;;;;;5084739;28;20464;-36
2023/09/01 00:16:28;;;;;;;4.80;2.95;;;16.70;99.90;;;;;;5086124;28;20076;-36
2023/09/01 00:18:54;;;;;;;5.88;3.38;;;16.70;99.90;;;;;;5085637;28;20024;-35
2023/09/01 00:21:19;;;;;;;7.70;3.35;;;16.70;99.90;;;;;;5084700;28;20093;-35
2023/09/01 00:23:45;;;;;;;5.15;3.55;;;16.70;99.90;;;;;;5085818;28;21179;-35
2023/09/01 00:26:11;;;;;;;6.35;3.10;;;16.70;99.90;;;;;;5088168;28;20394;-37
2023/09/01 00:28:43;;;;;;;5.28;2.80;;;16.70;99.90;;;;;;5079460;28;20039;-34
2023/09/01 00:31:08;;;;;;;9.45;3.88;;;16.60;99.90;;;;;;5079194;28;20528;-36
2023/09/01 00:33:37;;;;;;;6.32;3.28;;;16.60;99.90;;;;;;5085767;28;20028;-36
2023/09/01 00:36:03;;;;;;;5.00;3.40;;;16.60;99.90;;;;;;5083872;28;20467;-35
2023/09/01 00:38:32;;;;;;;5.07;3.20;;;16.50;99.90;;;;;;5083016;28;20036;-42
2023/09/01 00:40:57;;;;;;;5.80;3.47;;;16.50;99.90;;;;;;5084482;28;20016;-34
2023/09/01 00:43:23;;;;;;;4.05;3.38;;;16.50;99.90;;;;;;5083794;28;20024;-36
2023/09/01 00:45:49;;;;;;;5.63;3.50;;;16.50;99.90;;;;;;5084452;28;20034;-37
2023/09/01 00:48:15;;;;;;;5.45;3.28;;;16.50;99.90;;;;;;5082287;28;20023;-42
2023/09/01 00:50:42;;;;;;;4.15;2.92;;;16.50;99.90;;;;;;5072182;28;20537;-35
2023/09/01 00:53:08;;;;;;;3.75;3.00;;;16.50;99.90;;;;;;5085201;28;20099;-36
2023/09/01 00:55:36;;;;;;;3.85;3.28;;;16.50;99.90;;;;;;5084308;28;20032;-37
2023/09/01 00:58:02;;;;;;;4.70;3.00;;;16.60;99.90;;;;;;5083487;28;20062;-36
2023/09/01 01:00:31;;;;;;;6.70;3.30;;;16.50;99.90;;;;;;5082882;28;20040;-36
2023/09/01 01:02:57;;;;;;;5.88;3.28;;;16.50;99.90;;;;;;5078567;28;20020;-36
2023/09/01 01:05:31;;;;;;;4.10;3.20;;;16.50;99.90;;;;;;5081464;28;20059;-34
2023/09/01 01:08:15;;;;;;;3.67;3.00;;;16.50;99.90;;;;;;5081798;28;20055;-36
2023/09/01 01:10:57;;;;;;;6.15;3.10;;;16.50;99.90;;;;;;5079830;28;20032;-36
2023/09/01 01:13:25;;;;;;;3.20;2.90;;;16.50;99.90;;;;;;5082463;28;20494;-35
2023/09/01 01:15:55;;;;;;;5.10;3.03;;;16.40;99.90;;;;;;5084876;28;20036;-36
2023/09/01 01:18:23;;;;;;;4.75;2.85;;;16.40;99.90;;;;;;5083312;28;20028;-34
2023/09/01 01:20:53;;;;;;;6.97;3.78;;;16.40;99.90;;;;;;5078906;28;20039;-36
2023/09/01 01:23:20;;;;;;;4.75;2.70;;;16.40;99.90;;;;;;5084279;28;20111;-35
2023/09/01 01:25:52;;;;;;;4.85;3.03;;;16.30;99.90;;;;;;5084491;28;20031;-35
2023/09/01 01:28:20;;;;;;;6.00;3.53;;;16.30;99.90;;;;;;5083210;28;20026;-36
2023/09/01 01:30:47;;;;;;;5.20;3.58;;;16.20;99.90;;;;;;5079318;28;20036;-36
2023/09/01 01:33:47;;;;;;;5.70;2.95;;;16.20;99.90;;;;;;5080660;28;20020;-36
2023/09/01 01:36:34;;;;;;;5.82;3.25;;;16.20;99.90;;;;;;5082750;28;20410;-37
2023/09/01 01:39:05;;;;;;;5.03;3.80;;;16.10;99.90;;;;;;5081693;28;20024;-35
2023/09/01 01:41:44;;;;;;;6.57;3.17;;;16.10;99.90;;;;;;5079977;28;20037;-36
2023/09/01 01:44:14;;;;;;;4.97;3.20;;;16.00;99.90;;;;;;5078059;28;20035;-36
2023/09/01 01:46:40;;;;;;;6.55;3.47;;;16.00;99.90;;;;;;5084065;28;20051;-36
2023/09/01 01:49:09;;;;;;;5.15;3.78;;;15.90;99.90;;;;;;5083131;28;20036;-34
2023/09/01 01:51:36;;;;;;;5.55;3.40;;;15.90;99.90;;;;;;5084723;28;20326;-36
2023/09/01 01:54:02;;;;;;;5.28;3.70;;;15.90;99.90;;;;;;5083605;28;20527;-36
2023/09/01 01:56:31;;;;;;;4.97;3.60;;;15.90;99.90;;;;;;5083789;28;20753;-34
2023/09/01 01:58:59;;;;;;;5.82;3.88;;;15.80;99.90;;;;;;5083590;28;20372;-35
2023/09/01 02:01:25;;;;;;;5.78;3.72;;;15.80;99.90;;;;;;5084125;28;20631;-35
2023/09/01 02:03:52;;;;;;;9.63;5.28;;;15.80;99.90;;;;;;5080995;28;20043;-35
2023/09/01 02:06:20;;;;;;;6.35;4.70;;;15.80;99.90;;;;;;5083748;28;20028;-35
2023/09/01 02:08:46;;;;;;;8.13;4.35;;;15.70;99.90;;;;;;5083904;28;20421;-35
2023/09/01 02:11:11;;;;;;;4.88;4.05;;;15.70;99.90;;;;;;5084150;28;20031;-36
2023/09/01 02:13:40;;;;;;;5.72;3.90;;;15.70;99.90;;;;;;5083013;28;20421;-36
2023/09/01 02:16:08;;;;;;;8.88;4.07;;;15.60;99.90;;;;;;5083652;28;20107;-36
2023/09/01 02:18:34;;;;;;;5.47;3.67;;;15.60;99.90;;;;;;5083624;28;20039;-36
2023/09/01 02:21:00;;;;;;;3.70;3.38;;;15.60;99.90;;;;;;5083962;28;20024;-35
2023/09/01 02:23:26;;;;;;;5.22;3.70;;;15.60;99.90;;;;;;5084098;28;20024;-36
2023/09/01 02:25:51;;;;;;;6.57;3.60;;;15.60;99.90;;;;;;5084286;28;20110;-35
2023/09/01 02:28:17;;;;;;;3.70;3.05;;;15.60;99.90;;;;;;5083637;28;20553;-36
2023/09/01 02:30:43;;;;;;;4.82;3.53;;;15.60;99.90;;;;;;5084821;28;20482;-34
2023/09/01 02:33:09;;;;;;;5.20;3.08;;;15.50;99.90;;;;;;5086584;28;20020;-35
2023/09/01 02:35:45;;;;;;;6.45;3.63;;;15.50;99.90;;;;;;5087996;28;20138;-36
2023/09/01 02:38:11;;;;;;;6.78;4.05;;;15.50;99.90;;;;;;5074245;28;20035;-36
2023/09/01 02:40:40;;;;;;;4.53;3.40;;;15.40;99.90;;;;;;5088608;28;20031;-35
2023/09/01 02:43:06;;;;;;;5.95;3.97;;;15.50;99.90;;;;;;5087800;28;20027;-36
2023/09/01 02:45:32;;;;;;;5.07;3.63;;;15.50;99.90;;;;;;5088198;28;20016;-35
2023/09/01 02:47:57;;;;;;;5.25;3.88;;;15.50;99.90;;;;;;5087354;28;20961;-36
2023/09/01 02:50:23;;;;;;;5.43;3.53;;;15.50;99.90;;;;;;5087173;28;20032;-34
2023/09/01 02:52:49;;;;;;;5.13;3.70;;;15.50;99.90;;;;;;5088618;28;20024;-35
2023/09/01 02:55:17;;;;;;;5.95;3.45;;;15.50;99.90;;;;;;5086173;28;20083;-34
2023/09/01 02:57:43;;;;;;;5.55;3.83;;;15.50;99.90;;;;;;5086784;28;20077;-35
2023/09/01 03:00:18;;;;;;;6.60;3.85;;;15.50;99.90;;;;;;5086099;28;20040;-36
2023/09/01 03:02:47;;;;;;;5.80;3.83;;;15.50;99.90;;;;;;5086282;28;20038;-35
2023/09/01 03:05:13;;;;;;;4.95;3.70;;;15.50;99.90;;;;;;5085948;28;20024;-34
2023/09/01 03:07:42;;;;;;;4.13;3.47;;;15.50;99.90;;;;;;5084197;28;20426;-34
2023/09/01 03:10:08;;;;;;;5.72;3.50;;;15.50;99.90;;;;;;5084110;28;20028;-34
2023/09/01 03:12:38;;;;;;;4.07;3.42;;;15.50;99.90;;;;;;5084189;28;20024;-35
2023/09/01 03:15:06;;;;;;;5.43;3.85;;;15.50;99.90;;;;;;5086011;28;20558;-35
2023/09/01 03:17:34;;;;;;;5.40;3.80;;;15.50;99.90;;;;;;5088359;28;20024;-34
2023/09/01 03:20:04;;;;;;;5.55;3.72;;;15.50;99.90;;;;;;5084061;28;20016;-36
2023/09/01 03:22:29;;;;;;;5.93;4.28;;;15.50;99.90;;;;;;5084423;28;20051;-37
2023/09/01 03:24:55;;;;;;;6.97;3.67;;;15.50;99.90;;;;;;5084338;28;20050;-35
2023/09/01 03:27:23;;;;;;;4.93;3.42;;;15.50;99.90;;;;;;5085266;28;20032;-35
2023/09/01 03:29:56;;;;;;;5.47;3.35;;;15.40;99.90;;;;;;5073548;28;20391;-34
2023/09/01 03:32:24;;;;;;;5.85;3.80;;;15.50;99.90;;;;;;5083018;28;20032;-35
2023/09/01 03:34:52;;;;;;;8.27;3.85;;;15.50;99.90;;;;;;5079929;28;20024;-35
2023/09/01 03:37:18;;;;;;;5.75;3.70;;;15.50;99.90;;;;;;5086547;28;20474;-38
2023/09/01 03:39:47;;;;;;;5.30;4.05;;;15.50;99.90;;;;;;5098938;28;20038;-35
2023/09/01 03:42:12;;;;;;;6.03;3.70;;;15.50;99.90;;;;;;5098174;28;20471;-34
2023/09/01 03:44:38;;;;;;;5.22;4.07;;;15.50;99.90;;;;;;5092699;28;20023;-36
2023/09/01 03:47:04;;;;;;;8.00;4.70;;;15.60;99.90;;;;;;5086869;28;20890;-34
2023/09/01 03:49:32;;;;;;;6.20;3.90;;;15.60;99.90;;;;;;5086569;28;20040;-35
2023/09/01 03:51:58;;;;;;;5.13;4.55;;;15.60;99.90;;;;;;5085446;28;20341;-36
2023/09/01 03:54:30;;;;;;;7.47;4.20;;;15.60;99.90;;;;;;5087267;28;20107;-35
2023/09/01 03:56:56;;;;;;;5.07;3.83;;;15.60;99.90;;;;;;5086275;28;20501;-36
2023/09/01 03:59:21;;;;;;;5.03;4.13;;;15.70;99.90;;;;;;5084574;28;20052;-35
2023/09/01 04:01:47;;;;;;;6.38;3.90;;;15.60;99.90;;;;;;5077745;28;20035;-36
2023/09/01 04:04:16;;;;;;;7.38;4.35;;;15.70;99.90;;;;;;5083555;28;20035;-37
2023/09/01 04:06:42;;;;;;;4.47;3.80;;;15.60;99.90;;;;;;5086986;28;20076;-35
2023/09/01 04:09:08;;;;;;;5.03;4.03;;;15.60;99.90;;;;;;5092124;28;20041;-35
2023/09/01 04:11:34;;;;;;;6.97;3.83;;;15.60;99.90;;;;;;5097153;28;20024;-36
2023/09/01 04:14:01;;;;;;;6.78;4.03;;;15.70;99.90;;;;;;5085421;28;20186;-36
2023/09/01 04:16:27;;;;;;;5.97;4.10;;;15.70;99.90;;;;;;5086630;28;20024;-36
2023/09/01 04:18:54;;;;;;;6.43;3.92;;;15.70;99.90;;;;;;5094904;28;20024;-38
2023/09/01 04:21:20;;;;;;;4.35;3.83;;;15.70;99.90;;;;;;5084884;28;20034;-36
2023/09/01 04:23:48;;;;;;;4.90;3.88;;;15.70;99.90;;;;;;5085982;28;20390;-36
2023/09/01 04:26:14;;;;;;;5.85;3.63;;;15.70;99.90;;;;;;5085466;28;20024;-37
2023/09/01 04:28:40;;;;;;;5.50;3.90;;;15.70;99.90;;;;;;5071012;28;20028;-36
2023/09/01 04:31:16;;;;;;;5.53;3.70;;;15.70;99.90;;;;;;5065189;28;20033;-36
2023/09/01 04:33:42;;;;;;;4.43;3.72;;;15.70;99.90;;;;;;5084450;28;20381;-38
2023/09/01 04:36:08;;;;;;;6.97;4.03;;;15.70;99.90;;;;;;5085219;28;20831;-36
2023/09/01 04:38:33;;;;;;;4.78;3.88;;;15.80;99.90;;;;;;5084155;28;20031;-36
2023/09/01 04:41:00;;;;;;;8.23;3.78;;;15.80;99.90;;;;;;5064651;28;20031;-36
2023/09/01 04:43:29;;;;;;;8.38;4.10;;;15.80;99.90;;;;;;5081984;28;20032;-36
2023/09/01 04:45:56;;;;;;;5.05;3.80;;;15.80;99.90;;;;;;5065398;28;20021;-37
2023/09/01 04:48:21;;;;;;;5.07;3.55;;;15.90;99.90;;;;;;5078780;28;20028;-36
2023/09/01 04:50:47;;;;;;;7.57;3.80;;;15.80;99.90;;;;;;5067768;28;20032;-35
2023/09/01 04:53:14;;;;;;;5.22;4.25;;;15.80;99.90;;;;;;5076800;28;20093;-37
2023/09/01 04:55:39;;;;;;;5.30;4.18;;;15.80;99.90;;;;;;5084325;28;20139;-37
2023/09/01 04:58:05;;;;;;;5.70;3.97;;;15.80;99.90;;;;;;5080733;28;20542;-37
2023/09/01 05:00:30;;;;;;;5.15;4.03;;;15.80;99.90;;;;;;5077484;28;20048;-35
2023/09/01 05:02:56;;;;;;;6.50;4.00;;;15.80;99.90;;;;;;5084873;28;20016;-35
2023/09/01 05:05:22;;;;;;;4.82;4.13;;;15.80;99.90;;;;;;5086888;28;20024;-35
2023/09/01 05:07:47;;;;;;;4.60;3.88;;;15.80;99.90;;;;;;5085463;28;20016;-34
2023/09/01 05:10:13;;;;;;;5.97;4.40;;;15.80;99.90;;;;;;5083467;28;20118;-35
2023/09/01 05:12:42;;;;;;;5.10;4.32;;;15.80;99.90;;;;;;5084703;28;20055;-35
2023/09/01 05:15:11;;;;;;;7.22;4.40;;;15.80;99.90;;;;;;5079511;28;20032;-36
2023/09/01 05:17:37;;;;;;;5.82;4.22;;;15.80;99.90;;;;;;5064734;28;20027;-37
2023/09/01 05:20:07;;;;;;;6.38;4.28;;;15.90;99.90;;;;;;5083563;28;20425;-37
2023/09/01 05:22:33;;;;;;;6.65;3.95;;;15.90;99.90;;;;;;5085546;28;20085;-36
2023/09/01 05:24:59;;;;;;;5.65;4.05;;;15.80;99.90;;;;;;5083490;28;20475;-34
2023/09/01 05:27:27;;;;;;;4.85;4.13;;;15.80;99.90;;;;;;5085800;28;20024;-36
2023/09/01 05:29:53;;;;;;;6.32;4.85;;;15.80;99.90;;;;;;5084480;28;20032;-37
2023/09/01 05:32:20;;;;;;;6.57;4.45;;;15.80;99.90;;;;;;5084738;28;20034;-35
2023/09/01 05:34:46;;;;;;;7.22;4.70;;;15.80;99.90;;;;;;5084165;28;20503;-35
2023/09/01 05:37:12;;;;;;;5.10;4.40;;;15.90;99.90;;;;;;5083333;28;20042;-35
2023/09/01 05:39:38;;;;;;;6.03;4.50;;;15.90;99.90;;;;;;5085234;28;20024;-36
2023/09/01 05:42:04;;;;;;;7.00;4.70;;;15.90;99.90;;;;;;5084975;28;20024;-36
2023/09/01 05:44:30;;;;;;;5.72;4.75;;;15.90;99.90;;;;;;5071771;28;20070;-34
2023/09/01 05:46:56;;;;;;;7.97;4.72;;;15.90;99.90;;;;;;5084941;28;20036;-35
2023/09/01 05:49:25;;;;;;;8.05;5.38;;;15.90;99.90;;;;;;5084185;28;20032;-35
2023/09/01 05:52:03;;;;;;;6.22;4.85;;;15.90;99.90;;;;;;5073686;28;20178;-37
2023/09/01 05:54:29;;;;;;;7.90;5.03;;;16.00;99.90;;;;;;5084891;28;20028;-37
2023/09/01 05:56:55;;;;;;;8.98;5.70;;;16.00;99.90;;;;;;5084717;28;20036;-36
2023/09/01 05:59:21;;;;;;;8.30;6.03;;;16.00;99.90;;;;;;5083531;28;20052;-35
2023/09/01 06:01:46;;;;;;;6.22;5.57;;;16.10;99.90;;;;;;5084470;28;20024;-36
2023/09/01 06:04:12;;;;;;;10.20;5.97;;;16.10;99.90;;;;;;5083518;28;20358;-37
2023/09/01 06:06:39;;;;;;;8.50;5.80;;;16.10;99.90;;;;;;5086528;28;20096;-37
2023/09/01 06:09:07;;;;;;;6.97;5.30;;;16.20;99.90;;;;;;5088149;28;20039;-36
2023/09/01 06:11:33;;;;;;;7.90;5.38;;;16.20;99.90;;;;;;5088296;28;20035;-37
2023/09/01 06:13:59;;;;;;;7.85;5.50;;;16.20;99.90;;;;;;5089238;28;20016;-36
2023/09/01 06:16:25;;;;;;;8.25;5.07;;;16.30;99.90;;;;;;5088374;28;20522;-34
2023/09/01 06:18:52;;;;;;;6.75;4.75;;;16.30;99.90;;;;;;5088950;28;20349;-35
2023/09/01 06:21:18;;;;;;;7.93;4.53;;;16.40;99.90;;;;;;5087500;28;20012;-35
2023/09/01 06:23:47;;;;;;;6.45;5.03;;;16.40;99.90;;;;;;5086926;28;20491;-36
2023/09/01 06:26:23;;;;;;;7.25;5.13;;;16.50;99.90;;;;;;5091899;28;20028;-35
2023/09/01 06:28:49;;;;;;;7.20;5.30;;;16.50;99.90;;;;;;5072772;28;20107;-36
2023/09/01 06:31:17;;;;;;;4.53;3.78;;;16.70;99.90;;;;;;5076915;28;20091;-35
2023/09/01 06:33:44;;;;;;;8.52;4.55;;;16.80;99.90;;;;;;5087371;28;20062;-35
2023/09/01 06:36:12;;;;;;;4.65;3.80;;;16.80;99.90;;;;;;5087329;28;20023;-34
2023/09/01 06:38:41;;;;;;;5.10;4.10;;;16.90;99.90;;;;;;5089257;28;20024;-36
2023/09/01 06:41:08;;;;;;;6.22;4.03;;;16.90;99.90;;;;;;5082616;28;20020;-36
2023/09/01 06:43:33;;;;;;;5.68;4.25;;;17.00;99.90;;;;;;5067230;28;20464;-35
2023/09/01 06:45:59;;;;;;;5.97;4.03;;;17.00;99.90;;;;;;5070923;28;20023;-35
2023/09/01 06:48:25;;;;;;;5.88;4.00;;;17.00;99.90;;;;;;5091069;28;20031;-35
2023/09/01 06:51:00;;;;;;;5.80;3.65;;;17.00;99.90;;;;;;5107952;28;20116;-35
2023/09/01 06:53:26;;;;;;;5.45;4.13;;;17.10;99.90;;;;;;5088531;28;20020;-34
2023/09/01 06:55:52;;;;;;;5.13;3.75;;;17.10;99.90;;;;;;5087352;28;20056;-35
2023/09/01 06:58:17;;;;;;;4.10;3.30;;;17.10;99.90;;;;;;5085836;28;20055;-35
2023/09/01 07:00:43;;;;;;;4.70;3.35;;;17.20;99.90;;;;;;5067295;28;20052;-36
2023/09/01 07:03:09;;;;;;;6.00;3.58;;;17.20;99.90;;;;;;5083749;28;20023;-36
2023/09/01 07:05:34;;;;;;;5.53;4.22;;;17.30;99.90;;;;;;5087836;28;20051;-36
2023/09/01 07:08:00;;;;;;;4.20;3.80;;;17.40;99.90;;;;;;5089411;28;20020;-35
2023/09/01 07:10:26;;;;;;;6.32;3.83;;;17.50;99.90;;;;;;5089446;28;20502;-36
2023/09/01 07:12:51;;;;;;;5.13;4.15;;;17.50;99.90;;;;;;5081868;28;20760;-38
2023/09/01 07:15:17;;;;;;;4.75;3.47;;;17.60;99.90;;;;;;5081320;28;20032;-38
2023/09/01 07:17:42;;;;;;;4.47;3.22;;;17.70;99.90;;;;;;5086424;28;20020;-35
2023/09/01 07:20:11;;;;;;;4.13;3.22;;;17.70;99.90;;;;;;5087348;28;20016;-36
2023/09/01 07:22:37;;;;;;;4.53;3.20;;;17.70;99.90;;;;;;5089349;28;20027;-37
2023/09/01 07:25:04;;;;;;;6.18;3.30;;;17.70;99.90;;;;;;5086744;28;20036;-35
2023/09/01 07:27:30;;;;;;;3.72;2.70;;;17.70;99.90;;;;;;5103739;28;20036;-35
2023/09/01 07:29:55;;;;;;;3.80;3.00;;;17.70;99.90;;;;;;5079996;28;20640;-35
2023/09/01 07:32:21;;;;;;;4.53;3.05;;;17.70;99.90;;;;;;5080606;28;20047;-35
2023/09/01 07:34:47;;;;;;;3.42;2.83;;;17.70;99.90;;;;;;5081923;28;20040;-36
2023/09/01 07:37:13;;;;;;;5.97;3.42;;;17.80;99.90;;;;;;5075175;28;20020;-35
2023/09/01 07:39:41;;;;;;;5.65;3.13;;;17.80;99.90;;;;;;5086552;28;20846;-35
2023/09/01 07:42:07;;;;;;;3.60;3.17;;;17.90;99.90;;;;;;5086507;28;20077;-36
2023/09/01 07:44:33;;;;;;;3.45;2.90;;;17.90;99.90;;;;;;5085507;28;20036;-35
2023/09/01 07:46:59;;;;;;;3.97;3.03;;;17.90;99.90;;;;;;5087032;28;20028;-36
2023/09/01 07:49:25;;;;;;;5.90;3.30;;;18.00;99.90;;;;;;5085897;28;20063;-36
2023/09/01 07:51:51;;;;;;;4.28;3.20;;;18.00;99.90;;;;;;5088569;28;20027;-38
2023/09/01 07:54:17;;;;;;;3.55;2.88;;;18.10;99.90;;;;;;5094156;28;20081;-36
2023/09/01 07:56:42;;;;;;;4.35;3.40;;;18.20;99.90;;;;;;5086558;28;20032;-35
2023/09/01 07:59:08;;;;;;;4.97;3.67;;;18.20;99.90;;;;;;5087696;28;20043;-35
2023/09/01 08:01:33;;;;;;;5.43;3.72;;;18.20;99.90;;;;;;5074302;28;20039;-36
2023/09/01 08:04:02;;;;;;;7.15;4.70;;;18.20;99.90;;;;;;5072489;28;20383;-36
2023/09/01 08:06:31;;;;;;;4.47;3.67;;;18.20;99.90;;;;;;5085884;28;20020;-38
2023/09/01 08:08:57;;;;;;;4.97;4.40;;;18.20;99.90;;;;;;5086383;28;20052;-37
2023/09/01 08:11:22;;;;;;;5.53;4.05;;;18.10;99.90;;;;;;5086490;28;20121;-35
2023/09/01 08:13:48;;;;;;;6.57;4.63;;;18.10;99.90;;;;;;5086476;28;20024;-36
2023/09/01 08:16:16;;;;;;;6.45;3.75;;;18.10;99.90;;;;;;5095709;28;20117;-34
2023/09/01 08:18:41;;;;;;;3.70;3.22;;;18.10;99.90;;;;;;5085800;28;20027;-35
2023/09/01 08:21:07;;;;;;;3.72;2.92;;;18.10;99.90;;;;;;5085806;28;20020;-35
2023/09/01 08:23:33;;;;;;;3.63;2.90;;;18.10;99.90;;;;;;5086836;28;20616;-36
2023/09/01 08:25:58;;;;;;;5.35;2.95;;;18.20;99.90;;;;;;5085875;28;20024;-36
2023/09/01 08:28:24;;;;;;;5.90;4.10;;;18.20;99.90;;;;;;5085741;28;20031;-37
2023/09/01 08:30:49;;;;;;;5.68;3.75;;;18.30;99.90;;;;;;5084781;28;20635;-36
2023/09/01 08:33:17;;;;;;;5.05;3.38;;;18.40;99.90;;;;;;5084867;28;20024;-37
2023/09/01 08:35:43;;;;;;;4.93;3.78;;;18.40;99.90;;;;;;5086686;28;20031;-36
2023/09/01 08:38:08;;;;;;;3.80;3.10;;;18.40;99.90;;;;;;5085327;28;20024;-35
2023/09/01 08:40:34;;;;;;;4.47;3.22;;;18.40;99.90;;;;;;5085366;28;20028;-37
2023/09/01 08:43:02;;;;;;;3.72;3.08;;;18.50;99.90;;;;;;5085216;28;20020;-36
2023/09/01 08:45:30;;;;;;;4.25;3.10;;;18.50;99.90;;;;;;5085234;28;20031;-36
2023/09/01 08:47:55;;;;;;;4.00;3.42;;;18.60;99.90;;;;;;5084508;28;20043;-35
2023/09/01 08:50:21;;;;;;;5.20;4.05;;;18.60;99.90;;;;;;5084800;28;20273;-36
2023/09/01 08:52:48;;;;;;;4.57;3.45;;;18.60;99.90;;;;;;5085791;28;20024;-44
2023/09/01 08:55:15;;;;;;;5.15;3.22;;;18.60;99.90;;;;;;5084095;28;20028;-36
2023/09/01 08:57:41;;;;;;;5.03;3.20;;;18.70;99.90;;;;;;5085751;28;20565;-35
2023/09/01 09:00:10;;;;;;;3.97;3.08;;;18.70;99.90;;;;;;5083613;28;20036;-36
2023/09/01 09:02:40;;;;;;;4.57;3.40;;;18.70;99.90;;;;;;5078336;28;20074;-37
2023/09/01 09:05:06;;;;;;;6.53;3.35;;;18.70;99.90;;;;;;5064541;28;20032;-36
2023/09/01 09:07:32;;;;;;;5.80;3.60;;;18.70;99.90;;;;;;5083175;28;20050;-36
2023/09/01 09:10:01;;;;;;;4.53;3.50;;;18.60;99.90;;;;;;5083426;28;20036;-36
2023/09/01 09:12:43;;;;;;;4.03;3.05;;;18.60;99.90;;;;;;5083922;28;20054;-36
2023/09/01 09:15:17;;;;;;;4.82;3.28;;;18.70;99.90;;;;;;5063948;28;20032;-35
2023/09/01 09:17:48;;;;;;;3.60;3.03;;;18.70;99.90;;;;;;5077311;28;20849;-35
2023/09/01 09:20:17;;;;;;;4.72;3.53;;;18.70;99.90;;;;;;5085226;28;20060;-37
2023/09/01 09:23:03;;;;;;;6.00;4.03;;;18.70;99.90;;;;;;5084932;28;20032;-36
2023/09/01 09:25:31;;;;;;;6.25;3.70;;;18.70;99.90;;;;;;5065062;28;20031;-34
2023/09/01 09:28:12;;;;;;;5.93;3.78;;;18.70;99.90;;;;;;5080457;28;20032;-35
2023/09/01 09:30:53;;;;;;;4.88;3.60;;;18.70;99.90;;;;;;5087288;28;20099;-34
2023/09/01 09:33:27;;;;;;;4.10;3.00;;;18.70;99.90;;;;;;5086324;28;20032;-35
2023/09/01 09:35:53;;;;;;;4.07;3.17;;;18.80;99.90;;;;;;5064581;28;20483;-35
2023/09/01 09:38:18;;;;;;;3.92;3.38;;;18.80;99.90;;;;;;5081753;28;20052;-36
2023/09/01 09:41:03;;;;;;;3.88;3.25;;;18.80;99.90;;;;;;5085078;28;20435;-39
2023/09/01 09:43:43;;;;;;;4.03;3.05;;;18.80;99.90;;;;;;5084094;28;20098;-37
2023/09/01 09:46:12;;;;;;;4.20;3.25;;;18.80;99.90;;;;;;5082252;28;20020;-37
2023/09/01 09:48:39;;;;;;;4.90;2.92;;;18.90;99.90;;;;;;5083582;28;20035;-37
2023/09/01 09:51:09;;;;;;;3.83;2.90;;;18.90;99.90;;;;;;5083402;28;20032;-36
2023/09/01 09:53:44;;;;;;;3.20;2.80;;;18.90;99.90;;;;;;5084475;28;20119;-36
2023/09/01 09:56:25;;;;;;;4.18;3.00;;;18.90;99.90;;;;;;5085221;28;20115;-36
2023/09/01 09:58:54;;;;;;;5.50;3.47;;;18.80;99.90;;;;;;5083870;28;20494;-36
2023/09/01 10:01:24;;;;;;;4.50;3.40;;;18.80;99.90;;;;;;5084342;28;20926;-36
2023/09/01 10:03:49;;;;;;;3.80;3.40;;;18.80;99.90;;;;;;5085176;28;20073;-37
2023/09/01 10:06:17;;;;;;;4.05;3.25;;;18.80;99.90;;;;;;5084297;28;20447;-35
2023/09/01 10:08:43;;;;;;;4.55;3.20;;;18.80;99.90;;;;;;5085327;28;20357;-37
2023/09/01 10:11:10;;;;;;;4.20;3.67;;;18.80;99.90;;;;;;5084023;28;20064;-36
2023/09/01 10:13:39;;;;;;;5.63;3.40;;;18.80;99.90;;;;;;5084650;28;20031;-35
2023/09/01 10:16:05;;;;;;;4.45;3.38;;;18.80;99.90;;;;;;5083965;28;20024;-36
2023/09/01 10:18:33;;;;;;;3.58;3.28;;;18.70;99.90;;;;;;5083472;28;20012;-36
2023/09/01 10:20:59;;;;;;;4.43;3.08;;;18.70;99.90;;;;;;5084137;28;20028;-36
2023/09/01 10:23:27;;;;;;;3.83;3.28;;;18.70;99.90;;;;;;5084980;28;20098;-36
2023/09/01 10:26:16;;;;;;;5.03;3.30;;;18.70;99.90;;;;;;5084321;28;20031;-37
2023/09/01 10:29:03;;;;;;;3.17;2.88;;;18.60;99.90;;;;;;5084096;28;20085;-35
2023/09/01 10:31:33;;;;;;;3.13;2.85;;;18.70;99.90;;;;;;5076423;28;20032;-37
2023/09/01 10:34:13;;;;;;;3.40;3.10;;;18.70;99.90;;;;;;5084216;28;20020;-37
2023/09/01 10:36:41;;;;;;;2.70;2.50;;;18.60;99.90;;;;;;5084638;28;20681;-37
2023/09/01 10:39:23;;;;;;;3.70;3.00;;;18.60;99.90;;;;;;5084033;28;20020;-37
2023/09/01 10:42:07;;;;;;;4.15;2.70;;;18.60;99.90;;;;;;5085767;28;20454;-34
2023/09/01 10:44:44;;;;;;;3.22;2.92;;;18.60;99.90;;;;;;5084911;28;20035;-37
2023/09/01 10:47:31;;;;;;;3.22;2.90;;;18.60;99.90;;;;;;5083102;28;20020;-36
2023/09/01 10:49:58;;;;;;;5.28;2.60;;;18.60;99.90;;;;;;5083528;28;20525;-35
2023/09/01 10:52:34;;;;;;;2.97;2.78;;;18.60;99.90;;;;;;5084579;28;20114;-36
2023/09/01 10:54:59;;;;;;;4.93;2.50;;;18.60;99.90;;;;;;5086650;28;20024;-35
2023/09/01 10:58:07;;;;;;;2.63;2.33;;;18.60;99.90;;;;;;5087689;28;20028;-36
2023/09/01 11:00:34;;;;;;;2.60;2.40;;;18.70;99.90;;;;;;5073845;28;20062;-37
2023/09/01 11:03:33;;;;;;;2.55;2.35;;;18.70;99.90;;;;;;5087348;28;20024;-36
2023/09/01 11:06:03;;;;;;;2.47;2.28;;;18.80;99.90;;;;;;5086803;28;20032;-37
2023/09/01 11:08:30;;;;;;;2.70;2.50;;;18.80;99.90;;;;;;5086711;28;20031;-35
2023/09/01 11:11:05;;;;;;;2.25;2.05;;;18.80;99.90;;;;;;5087119;28;20166;-36
2023/09/01 11:13:31;;;;;;;1.90;1.80;;;18.90;99.90;;;;;;5087820;28;20028;-34
2023/09/01 11:15:56;;;;;;;3.22;2.33;;;18.90;99.90;;;;;;5086315;28;20375;-35
2023/09/01 11:18:24;;;;;;;2.53;2.10;;;18.90;99.90;;;;;;5087278;28;20051;-35
2023/09/01 11:20:55;;;;;;;2.13;2.00;;;18.90;99.90;;;;;;5087467;28;20380;-36
2023/09/01 11:23:24;;;;;;;2.17;2.00;;;19.00;99.90;;;;;;5086018;28;20086;-36
2023/09/01 11:26:00;;;;;;;3.28;2.08;;;19.00;99.90;;;;;;5087379;28;20047;-35
2023/09/01 11:28:27;;;;;;;2.17;1.98;;;19.00;99.90;;;;;;5087200;28;20733;-36
2023/09/01 11:30:55;;;;;;;4.10;2.03;;;19.00;99.90;;;;;;5086931;28;20067;-37
2023/09/01 11:33:22;;;;;;;2.85;2.40;;;19.00;99.90;;;;;;5086671;28;20514;-36
2023/09/01 11:35:48;;;;;;;2.60;2.10;;;18.90;99.90;;;;;;5087202;28;20016;-36
2023/09/01 11:38:20;;;;;;;2.45;2.15;;;18.90;99.90;;;;;;5087332;28;20396;-43
2023/09/01 11:40:48;;;;;;;2.55;2.35;;;19.00;99.90;;;;;;5087234;28;20023;-36
2023/09/01 11:43:14;;;;;;;2.58;2.38;;;18.90;99.90;;;;;;5086139;28;20028;-35
2023/09/01 11:45:47;;;;;;;3.30;2.78;;;19.00;99.90;;;;;;5087037;28;20116;-36
2023/09/01 11:48:23;;;;;;;2.88;2.40;;;18.90;99.90;;;;;;5085467;28;20039;-36
2023/09/01 11:50:55;;;;;;;3.90;2.40;;;18.90;99.90;;;;;;5085963;28;20065;-37
2023/09/01 11:53:48;;;;;;;2.50;2.30;;;18.90;99.90;;;;;;5085481;28;20051;-36
2023/09/01 11:56:19;;;;;;;2.70;2.50;;;19.00;99.90;;;;;;5085575;28;20539;-36
2023/09/01 11:58:49;;;;;;;2.78;2.53;;;19.10;99.90;;;;;;5085494;28;20388;-37
2023/09/01 12:01:17;;;;;;;3.40;2.65;;;19.30;99.90;;;;;;5086164;28;20035;-36
2023/09/01 12:03:50;;;;;;;3.47;2.92;;;19.50;99.90;;;;;;5085773;28;20032;-36
2023/09/01 12:06:20;;;;;;;3.33;3.03;;;19.60;99.90;;;;;;5085699;28;20024;-36
2023/09/01 12:08:47;;;;;;;2.63;2.42;;;19.80;99.90;;;;;;5086499;28;20044;-35
2023/09/01 12:11:13;;;;;;;3.15;2.90;;;19.90;99.90;;;;;;5085741;28;20848;-35
2023/09/01 12:13:39;;;;;;;3.20;2.90;;;20.00;99.90;;;;;;5086030;28;20023;-36
2023/09/01 12:16:05;;;;;;;3.60;3.30;;;20.00;99.90;;;;;;5085816;28;20024;-37
2023/09/01 12:18:38;;;;;;;2.97;2.78;;;20.00;99.90;;;;;;5085073;28;20023;-36
2023/09/01 12:21:05;;;;;;;;;;;20.10;99.90;;;;;;5086198;28;20154;-35
2023/09/01 12:23:32;;;;;;;3.47;2.85;;;20.20;99.90;;;;;;5086414;28;20006;-35
2023/09/01 12:26:02;;;;;;;4.15;2.85;;;20.30;99.90;;;;;;5085606;28;20506;-36
2023/09/01 12:28:29;;;;;;;3.72;3.17;;;20.50;99.90;;;;;;5086402;28;20032;-37
2023/09/01 12:30:56;;;;;;;3.33;3.03;;;20.60;99.90;;;;;;5086412;28;20024;-35
2023/09/01 12:33:22;;;;;;;3.67;3.38;;;20.70;99.90;;;;;;5085041;28;20112;-37
2023/09/01 12:35:48;;;;;;;3.03;2.83;;;20.80;99.90;;;;;;5086287;28;20030;-36
2023/09/01 12:38:17;;;;;;;4.00;3.60;;;20.90;99.90;;;;;;5085747;28;20031;-36
2023/09/01 12:40:43;;;;;;;3.92;3.45;;;21.00;99.90;;;;;;5085198;28;20024;-36
2023/09/01 12:43:09;;;;;;;3.88;3.58;;;21.10;99.90;;;;;;5084776;28;20093;-36
2023/09/01 12:45:35;;;;;;;4.18;3.50;;;21.10;99.90;;;;;;5086175;28;20028;-37
2023/09/01 12:48:01;;;;;;;3.42;3.13;;;21.10;99.90;;;;;;5084193;28;20050;-36
2023/09/01 12:50:27;;;;;;;3.28;2.97;;;21.00;99.90;;;;;;5085486;28;20040;-35
2023/09/01 12:52:54;;;;;;;3.53;2.92;;;21.00;99.90;;;;;;5084853;28;20020;-35
2023/09/01 12:55:19;;;;;;;3.13;2.83;;;20.80;99.90;;;;;;5081229;28;20030;-36